createdAt,value
2022-10-04T00:03:47.866Z,125.71091
2022-10-04T00:08:49.471Z,158.63415
2022-10-04T00:13:51.098Z,123.59184
2022-10-04T00:18:52.721Z,115.58774
2022-10-04T00:23:54.378Z,121.01149
2022-10-04T00:28:55.987Z,112.30601
2022-10-04T00:33:57.634Z,99.16373
2022-10-04T00:38:59.209Z,77.91304
2022-10-04T00:44:00.845Z,68.94929
2022-10-04T00:49:02.542Z,71.01031
2022-10-04T00:54:04.137Z,72.87029
2022-10-04T00:59:05.751Z,75.34328
2022-10-04T01:04:07.360Z,68.94929
2022-10-04T01:09:09.001Z,64.07797
2022-10-04T01:14:10.583Z,67.44689
2022-10-04T01:19:12.202Z,69.97137
2022-10-04T01:24:13.817Z,65.25984
2022-10-04T01:29:15.396Z,66.22222
2022-10-04T01:34:17.200Z,89.97156
2022-10-04T01:39:18.842Z,105.67979
2022-10-04T01:44:20.447Z,100.34518
2022-10-04T01:49:22.120Z,96.09877
2022-10-04T01:54:23.778Z,86.26328
2022-10-04T01:59:25.478Z,79.68282
2022-10-04T02:04:27.084Z,81.19376
2022-10-04T02:09:28.730Z,75.34328
2022-10-04T02:14:30.493Z,70.74897
2022-10-04T02:19:32.174Z,77.91304
2022-10-04T02:24:33.811Z,73.14046
2022-10-04T02:29:35.487Z,74.23256
2022-10-04T02:34:37.094Z,71.53623
2022-10-04T02:39:38.700Z,72.87029
2022-10-04T02:44:40.310Z,69.71429
2022-10-04T02:49:41.974Z,71.01031
2022-10-04T02:54:43.643Z,77.91304
2022-10-04T02:59:45.314Z,80.58537
2022-10-04T03:04:46.915Z,73.14046
2022-10-04T03:09:48.557Z,75.90578
2022-10-04T03:14:50.186Z,74.78556
2022-10-04T03:19:51.797Z,66.95409
2022-10-04T03:24:53.432Z,63.84436
2022-10-04T03:29:59.079Z,65.02161
2022-10-04T03:35:01.239Z,68.44444
2022-10-04T03:40:02.834Z,87.92523
2022-10-04T03:45:04.503Z,83.68254
2022-10-04T03:50:06.116Z,83.05192
2022-10-04T03:55:07.750Z,70.48871
2022-10-04T04:00:09.323Z,65.02161
2022-10-04T04:05:10.934Z,78.79212
2022-10-04T04:10:16.649Z,80.58537
2022-10-04T04:15:18.614Z,81.5
2022-10-04T04:20:20.374Z,89.97156
2022-10-04T04:25:21.961Z,79.68282
2022-10-04T04:30:23.543Z,82.42697
2022-10-04T04:35:25.182Z,109.5914
2022-10-04T04:40:26.792Z,87.25581
2022-10-04T04:45:28.441Z,76.75862
2022-10-04T04:50:30.091Z,71.27273
2022-10-04T04:55:44.491Z,67.94366
2022-10-04T05:00:52.141Z,66.70916
2022-10-04T05:05:53.758Z,68.69636
2022-10-04T05:10:55.537Z,68.19355
2022-10-04T05:15:57.139Z,71.01031
2022-10-04T05:20:58.782Z,67.2
2022-10-04T05:26:00.366Z,67.94366
2022-10-04T05:31:01.927Z,69.71429
2022-10-04T05:36:03.578Z,80.88889
2022-10-04T05:41:05.347Z,79.98234
2022-10-04T05:46:06.952Z,80.58537
2022-10-04T05:51:08.624Z,76.18884
2022-10-04T05:56:10.209Z,78.79212
2022-10-04T06:01:11.855Z,105.67979
2022-10-04T06:06:13.473Z,95.35135
2022-10-04T06:11:15.096Z,87.25581
2022-10-04T06:16:16.715Z,77.91304
2022-10-04T06:21:18.363Z,78.49782
2022-10-04T06:26:20.099Z,78.20479
2022-10-04T06:31:21.755Z,85.93548
2022-10-04T06:36:23.342Z,81.19376
2022-10-04T06:41:25.102Z,77.33333
2022-10-04T06:46:26.864Z,78.79212
2022-10-04T06:51:28.509Z,84.63927
2022-10-04T06:56:30.133Z,84.9611
2022-10-04T07:01:31.820Z,87.25581
2022-10-04T07:06:33.446Z,82.73874
2022-10-04T07:11:35.075Z,78.20479
2022-10-04T07:16:36.677Z,79.38462
2022-10-04T07:21:38.300Z,86.26328
2022-10-04T07:26:39.916Z,81.80761
2022-10-04T07:31:41.978Z,74.50847
2022-10-04T07:36:43.807Z,73.68421
2022-10-04T07:41:45.817Z,77.62256
2022-10-04T07:46:47.596Z,84.9611
2022-10-04T07:51:49.212Z,84.63927
2022-10-04T07:56:50.835Z,83.36652
2022-10-04T08:01:52.482Z,75.90578
2022-10-04T08:06:54.091Z,73.14046
2022-10-04T08:11:55.697Z,71.80083
2022-10-04T08:16:57.322Z,72.33333
2022-10-04T08:21:58.911Z,70.22951
2022-10-04T08:27:00.517Z,69.97137
2022-10-04T08:32:05.256Z,76.75862
2022-10-04T08:37:07.316Z,81.5
2022-10-04T08:42:09.034Z,88.94118
2022-10-04T08:47:10.640Z,86.26328
2022-10-04T08:52:12.274Z,90.31829
2022-10-04T08:57:16.106Z,85.93548
2022-10-04T09:02:18.088Z,86.59259
2022-10-04T09:07:19.743Z,78.49782
2022-10-04T09:12:21.406Z,76.75862
2022-10-04T09:17:23.173Z,79.98234
2022-10-04T09:22:24.812Z,86.92343
2022-10-04T09:27:53.277Z,80.88889
2022-10-04T09:32:56.338Z,77.91304
2022-10-04T09:37:57.926Z,77.62256
2022-10-04T09:42:59.557Z,76.47312
2022-10-04T09:48:01.270Z,79.38462
2022-10-04T09:53:02.846Z,78.49782
2022-10-04T09:58:04.448Z,83.68254
2022-10-04T10:03:06.110Z,93.87835
2022-10-04T10:08:07.721Z,88.94118
2022-10-04T10:13:09.340Z,78.79212
2022-10-04T10:18:10.946Z,78.20479
2022-10-04T10:23:12.523Z,79.38462
2022-10-04T10:28:14.127Z,87.92523
2022-10-04T10:33:15.752Z,84.63927
2022-10-04T10:38:17.389Z,79.68282
2022-10-04T10:43:19.013Z,75.06383
2022-10-04T10:48:20.615Z,75.06383
2022-10-04T10:53:22.220Z,77.62256
2022-10-04T10:58:23.787Z,80.88889
2022-10-04T11:03:28.495Z,85.6092
2022-10-04T11:08:33.619Z,78.79212
2022-10-04T11:13:35.233Z,73.95781
2022-10-04T11:18:36.951Z,73.68421
2022-10-04T11:23:38.537Z,70.48871
2022-10-04T11:28:40.219Z,75.90578
2022-10-04T11:33:41.876Z,78.79212
2022-10-04T11:38:43.456Z,77.04536
2022-10-04T11:43:45.082Z,75.90578
2022-10-04T11:48:46.746Z,72.87029
2022-10-04T11:53:48.370Z,71.27273
2022-10-04T11:58:50.002Z,69.71429
2022-10-04T12:03:51.860Z,68.94929
2022-10-04T12:08:53.694Z,69.20325
2022-10-04T12:13:55.330Z,72.33333
2022-10-04T12:18:56.959Z,72.06653
2022-10-04T12:23:58.533Z,79.98234
2022-10-04T12:29:00.137Z,75.90578
2022-10-04T12:34:01.758Z,74.78556
2022-10-04T12:39:03.428Z,73.68421
2022-10-04T12:44:05.045Z,73.14046
2022-10-04T12:49:06.669Z,74.23256
2022-10-04T12:54:08.262Z,76.18884
2022-10-04T12:59:09.884Z,72.60125
2022-10-04T13:04:44.243Z,72.60125
2022-10-04T13:09:59.770Z,70.48871
2022-10-04T13:15:14.194Z,68.94929
2022-10-04T13:20:15.805Z,68.69636
2022-10-04T13:25:17.457Z,68.44444
2022-10-04T13:30:19.106Z,69.97137
2022-10-04T13:35:21.109Z,71.53623
2022-10-04T13:40:22.724Z,70.22951
2022-10-04T13:45:24.524Z,70.22951
2022-10-04T13:50:26.172Z,69.20325
2022-10-04T13:55:27.772Z,69.45825
2022-10-04T14:00:29.349Z,69.20325
2022-10-04T14:05:30.954Z,68.94929
2022-10-04T14:10:32.607Z,68.69636
2022-10-04T14:15:34.197Z,68.69636
2022-10-04T14:20:35.835Z,68.69636
2022-10-04T14:25:37.428Z,68.69636
2022-10-04T14:30:39.095Z,68.19355
2022-10-04T14:35:40.730Z,68.44444
2022-10-04T14:40:42.324Z,67.69478
2022-10-04T14:45:44.025Z,67.94366
2022-10-04T14:50:45.669Z,67.2
2022-10-04T14:55:47.254Z,66.95409
2022-10-04T15:00:48.885Z,69.97137
2022-10-04T15:05:50.548Z,72.60125
2022-10-04T15:10:52.119Z,70.48871
2022-10-04T15:15:53.763Z,70.74897
2022-10-04T15:20:55.401Z,70.22951
2022-10-04T15:25:57.097Z,75.62393
2022-10-04T15:30:58.729Z,77.33333
2022-10-04T15:36:00.330Z,79.08772
2022-10-04T15:41:01.921Z,78.49782
2022-10-04T15:46:03.876Z,77.04536
2022-10-04T15:51:05.611Z,79.38462
2022-10-04T15:56:07.266Z,79.68282
2022-10-04T16:01:09.089Z,79.08772
2022-10-04T16:06:10.788Z,74.50847
2022-10-04T16:11:12.416Z,79.68282
2022-10-04T16:16:14.066Z,83.36652
2022-10-04T16:21:15.704Z,83.36652
2022-10-04T16:26:17.303Z,85.2844
2022-10-04T16:31:20.299Z,92.07692
2022-10-04T16:36:22.325Z,102.76289
2022-10-04T16:41:23.964Z,101.94872
2022-10-04T16:46:25.711Z,93.87835
2022-10-04T16:51:27.358Z,96.09877
2022-10-04T16:56:28.977Z,106.96296
2022-10-04T17:01:30.676Z,101.94872
2022-10-04T17:06:32.254Z,102.35476
2022-10-04T17:11:33.831Z,106.53298
2022-10-04T17:16:35.473Z,117.52113
2022-10-04T17:21:37.107Z,117.03371
2022-10-04T17:26:38.699Z,110.48649
2022-10-04T17:31:40.292Z,124.64516
2022-10-04T17:36:42.158Z,127.8806
2022-10-04T17:41:43.960Z,143.35275
2022-10-04T17:46:46.062Z,144.65147
2022-10-04T17:51:47.936Z,152.81356
2022-10-04T17:56:49.568Z,135.90031
2022-10-04T18:01:51.265Z,147.30033
2022-10-04T18:06:53.001Z,154.9589
2022-10-04T18:11:54.617Z,154.9589
2022-10-04T18:16:56.232Z,163.21708
2022-10-04T18:21:57.808Z,189.41833
2022-10-04T18:26:59.428Z,209.51724
2022-10-04T18:32:01.351Z,196.45902
2022-10-04T18:37:02.958Z,184.625
2022-10-04T18:42:04.585Z,187.47826
2022-10-04T18:47:06.225Z,192.3871
2022-10-04T18:52:07.846Z,192.3871
2022-10-04T18:57:09.460Z,190.4
2022-10-04T19:02:11.140Z,189.41833
2022-10-04T19:07:12.775Z,207.24786
2022-10-04T19:12:14.358Z,216.56637
2022-10-04T19:17:15.987Z,225.27854
2022-10-04T19:22:17.614Z,222.73303
2022-10-04T19:27:19.188Z,219
2022-10-04T19:32:20.836Z,229.18519
2022-10-04T19:37:22.563Z,244.4878
2022-10-04T19:42:24.200Z,240.15385
2022-10-04T19:47:25.883Z,224
2022-10-04T19:52:27.536Z,310.66667
2022-10-04T19:57:29.208Z,278.78261
2022-10-04T20:02:30.870Z,248.9505
2022-10-04T20:07:32.534Z,243.02913
2022-10-04T20:12:34.192Z,219
2022-10-04T20:17:35.808Z,212.99563
2022-10-04T20:22:37.409Z,243.02913
2022-10-04T20:27:39.004Z,234.56604
2022-10-04T20:32:40.582Z,227.87097
2022-10-04T20:37:42.217Z,247.44828
2022-10-04T20:42:44.602Z,263.17098
2022-10-04T20:47:46.229Z,282.46154
2022-10-04T20:52:47.819Z,290.06742
2022-10-04T20:57:49.442Z,310.66667
2022-10-04T21:02:51.189Z,331.42138
2022-10-04T21:07:52.780Z,371.77778
2022-10-04T21:12:54.377Z,407.15789
2022-10-04T21:17:56.000Z,384
2022-10-04T21:22:57.617Z,484.35088
2022-10-04T21:27:59.269Z,432.88889
2022-10-04T21:33:01.012Z,380.87943
2022-10-04T21:38:02.684Z,432.88889
2022-10-04T21:43:04.317Z,457.33333
2022-10-04T21:48:06.010Z,417.84615
2022-10-04T21:53:07.691Z,504
2022-10-04T21:58:09.283Z,519.70093
2022-10-04T22:03:10.862Z,560
2022-10-04T22:08:12.492Z,425.25
2022-10-04T22:13:14.100Z,349.26316
2022-10-04T22:16:12.490Z,324.24691
2022-10-04T22:21:14.162Z,371.77778
2022-10-04T22:26:03.103Z,400.2963
2022-10-04T22:31:04.723Z,321.91411
2022-10-04T22:36:06.353Z,306.35294
2022-10-04T22:41:07.987Z,266.51309
2022-10-04T22:46:09.703Z,245.96078
2022-10-04T22:51:11.395Z,225.27854
2022-10-04T22:56:13.027Z,238.73684
2022-10-04T23:01:14.616Z,212.99563
2022-10-04T23:06:16.447Z,197.49794
2022-10-04T23:11:18.028Z,190.4
2022-10-04T23:16:19.734Z,152.10811
2022-10-04T23:21:21.355Z,105.25654
2022-10-04T23:26:22.935Z,100.34518
2022-10-04T23:31:24.595Z,109.5914
2022-10-04T23:36:26.228Z,124.11696
2022-10-04T23:41:27.849Z,95.72414
2022-10-04T23:46:29.469Z,128.43114
2022-10-04T23:51:31.035Z,137.10345
2022-10-04T23:56:32.666Z,137.71069
